全部
Beauregard Rgnl Airport (De Ridder, LA) DRI 天氣
|
De Ridder, LA (KDRI)
晴天
多風 |
|
26 °C |
There is no TAF data available at DRI or any nearby airports.
DRI近期METAR歷史資料
| Date | Time (CDT) | Flight Rules | Wind Dir. | Speed | Type | Height AGL (ft) | Visibility | Temp (°C) | Temp (°F) | Dew Point (°C) | Dew Point (°F) | Rel. Humid. | Pressure | Density Altitude | Remarks |
|---|---|---|---|---|---|---|---|---|---|---|---|---|---|---|---|
| 04-五月 | 17:35 | VFR | 180° | 11 kt | 10 miles | 26° | 78° | 13° | 55° | 47% | 29.90 in Hg | 1,541 ft | |||
| 04-五月 | 17:15 | VFR | 160° | 11 kt | 10 miles | 26° | 78° | 13° | 55° | 45% | 29.90 in Hg | 1,541 ft | |||
| 04-五月 | 16:55 | VFR | 170° | 8 kt | 10 miles | 26° | 78° | 13° | 55° | 43% | 29.90 in Hg | 1,541 ft | |||
| 04-五月 | 16:15 | VFR | 170° | 10 kt | 10 miles | 26° | 78° | 12° | 53° | 43% | 29.92 in Hg | 1,521 ft | |||
| 04-五月 | 15:55 | VFR | 180° | 12 kt | 10 miles | 26° | 78° | 12° | 53° | 40% | 29.93 in Hg | 1,511 ft | |||
| 04-五月 | 15:35 | VFR | 190° | 10 kt | 10 miles | 27° | 80° | 12° | 53° | 39% | 29.94 in Hg | 1,621 ft | |||
| 04-五月 | 15:15 | VFR | 180° | 12 kt | 10 miles | 26° | 78° | 12° | 53° | 40% | 29.94 in Hg | 1,501 ft | |||
| 04-五月 | 14:55 | VFR | 200° | 11 kt | 10 miles | 26° | 78° | 12° | 53° | 41% | 29.95 in Hg | 1,491 ft | |||
| 04-五月 | 14:35 | VFR | 170° | 10 kt | 10 miles | 26° | 78° | 11° | 51° | 38% | 29.97 in Hg | 1,471 ft | Wind gusting to 19 KT | ||
| 04-五月 | 14:15 | VFR | 200° | 12 kt | 10 miles | 26° | 78° | 12° | 53° | 40% | 29.97 in Hg | 1,471 ft | Wind gusting to 17 KT | ||
| 04-五月 | 13:55 | VFR | 200° | 13 kt | 10 miles | 26° | 78° | 11° | 51° | 40% | 29.98 in Hg | 1,461 ft | |||
| 04-五月 | 13:35 | VFR | 190° | 11 kt | 10 miles | 26° | 78° | 11° | 51° | 40% | 29.99 in Hg | 1,451 ft | Wind gusting to 17 KT | ||
| 04-五月 | 13:15 | VFR | 200° | 14 kt | 10 miles | 26° | 78° | 12° | 53° | 41% | 29.99 in Hg | 1,451 ft | Wind gusting to 18 KT | ||
| 04-五月 | 12:55 | VFR | 210° | 12 kt | 10 miles | 26° | 78° | 11° | 51° | 41% | 29.99 in Hg | 1,451 ft | |||
| 04-五月 | 12:35 | VFR | 200° | 12 kt | 10 miles | 25° | 77° | 11° | 51° | 42% | 30.00 in Hg | 1,321 ft | |||
| 04-五月 | 12:15 | VFR | 180° | 8 kt | 10 miles | 24° | 75° | 11° | 51° | 42% | 30.01 in Hg | 1,191 ft | |||
| 04-五月 | 11:55 | VFR | 200° | 11 kt | 10 miles | 24° | 75° | 10° | 50° | 41% | 30.02 in Hg | 1,181 ft | Wind gusting to 19 KT | ||
| 04-五月 | 11:35 | VFR | 170° | 13 kt | 10 miles | 24° | 75° | 10° | 50° | 40% | 30.03 in Hg | 1,171 ft | |||
| 04-五月 | 11:15 | VFR | 200° | 12 kt | 10 miles | 24° | 75° | 10° | 50° | 41% | 30.03 in Hg | 1,171 ft | |||
| 04-五月 | 10:55 | VFR | 180° | 12 kt | 10 miles | 23° | 73° | 8° | 46° | 39% | 30.04 in Hg | 1,041 ft | |||
| 04-五月 | 10:35 | VFR | 150° | 11 kt | 10 miles | 23° | 73° | 8° | 46° | 36% | 30.04 in Hg | 1,041 ft | |||
| 04-五月 | 10:15 | VFR | 180° | 9 kt | 10 miles | 23° | 73° | 9° | 48° | 42% | 30.03 in Hg | 1,051 ft | Wind gusting to 17 KT | ||
| 04-五月 | 09:55 | VFR | 190° | 8 kt | 10 miles | 22° | 71° | 11° | 51° | 49% | 30.05 in Hg | 911 ft | |||
| 04-五月 | 09:35 | VFR | 200° | 9 kt | 10 miles | 21° | 69° | 11° | 51° | 51% | 30.04 in Hg | 801 ft |
登入
| 您的瀏覽器不支援. 升級您的瀏覽器 |
